createdAt,value
2023-06-28T00:00:26.345Z,762.00
2023-06-28T00:01:26.459Z,732.00
2023-06-28T00:02:26.418Z,739.00
2023-06-28T00:03:26.547Z,707.00
2023-06-28T00:04:26.521Z,700.00
2023-06-28T00:05:26.606Z,712.00
2023-06-28T00:06:26.594Z,730.00
2023-06-28T00:07:26.701Z,781.00
2023-06-28T00:08:26.646Z,772.00
2023-06-28T00:09:26.676Z,786.00
2023-06-28T00:10:26.685Z,819.00
2023-06-28T00:11:26.652Z,826.00
2023-06-28T00:12:26.657Z,865.00
2023-06-28T00:13:26.728Z,888.00
2023-06-28T00:14:26.666Z,909.00
2023-06-28T00:15:26.730Z,927.00
2023-06-28T00:16:26.745Z,990.00
2023-06-28T00:17:26.777Z,997.00
2023-06-28T00:18:26.781Z,1036.00
2023-06-28T00:19:26.800Z,1067.00
2023-06-28T00:20:26.817Z,1096.00
2023-06-28T00:21:26.886Z,1095.00
2023-06-28T00:22:26.851Z,1082.00
2023-06-28T00:23:26.949Z,1101.00
2023-06-28T00:24:26.935Z,1108.00
2023-06-28T00:25:26.965Z,1101.00
2023-06-28T00:26:26.988Z,1088.00
2023-06-28T00:27:27.002Z,1103.00
2023-06-28T00:28:27.064Z,1098.00
2023-06-28T00:29:27.101Z,1095.00
2023-06-28T00:30:27.147Z,1116.00
2023-06-28T00:31:27.226Z,1131.00
2023-06-28T00:32:27.288Z,1115.00
2023-06-28T00:33:27.185Z,1126.00
2023-06-28T00:34:27.225Z,1122.00
2023-06-28T00:35:27.289Z,1124.00
2023-06-28T00:36:27.360Z,1143.00
2023-06-28T00:37:27.392Z,1106.00
2023-06-28T00:38:27.370Z,1122.00
2023-06-28T00:39:27.369Z,1085.00
2023-06-28T00:40:27.414Z,1093.00
2023-06-28T00:41:27.411Z,1109.00
2023-06-28T00:42:27.438Z,1108.00
2023-06-28T00:43:27.419Z,1086.00
2023-06-28T00:44:27.414Z,1068.00
2023-06-28T00:45:27.444Z,1060.00
2023-06-28T00:46:27.480Z,1048.00
2023-06-28T00:47:27.556Z,1030.00
2023-06-28T00:48:27.598Z,1028.00
2023-06-28T00:49:27.662Z,1029.00
2023-06-28T00:50:27.744Z,1023.00
2023-06-28T00:51:27.758Z,1015.00
2023-06-28T00:52:27.805Z,1018.00
2023-06-28T00:53:27.908Z,1000.00
2023-06-28T00:54:27.851Z,973.00
2023-06-28T00:55:27.826Z,984.00
2023-06-28T00:56:27.847Z,986.00
2023-06-28T00:57:27.894Z,988.00
2023-06-28T00:58:27.949Z,999.00
2023-06-28T00:59:28.019Z,994.00
2023-06-28T01:00:28.099Z,1029.00
2023-06-28T01:01:28.118Z,1041.00
2023-06-28T01:02:28.246Z,1087.00
2023-06-28T01:03:28.388Z,1109.00
2023-06-28T01:04:28.261Z,1098.00
2023-06-28T01:05:28.350Z,1117.00
2023-06-28T01:06:28.534Z,1134.00
2023-06-28T01:07:28.487Z,1157.00
2023-06-28T01:08:28.515Z,1163.00
2023-06-28T01:09:28.500Z,1181.00
2023-06-28T01:10:28.519Z,1210.00
2023-06-28T01:11:28.538Z,1198.00
2023-06-28T01:12:28.545Z,1210.00
2023-06-28T01:13:28.533Z,1211.00
2023-06-28T01:14:28.553Z,1207.00
2023-06-28T01:15:28.583Z,1202.00
2023-06-28T01:16:28.633Z,1248.00
2023-06-28T01:17:28.739Z,1226.00
2023-06-28T01:18:28.758Z,1230.00
2023-06-28T01:19:28.803Z,1234.00
2023-06-28T01:20:28.860Z,1227.00
2023-06-28T01:21:28.909Z,1247.00
2023-06-28T01:22:28.947Z,1241.00
2023-06-28T01:23:29.043Z,1218.00
2023-06-28T01:24:28.939Z,1218.00
2023-06-28T01:25:28.947Z,1233.00
2023-06-28T01:26:28.972Z,1237.00
2023-06-28T01:27:28.988Z,1220.00
2023-06-28T01:28:29.019Z,1254.00
2023-06-28T01:29:29.002Z,1260.00
2023-06-28T01:30:29.001Z,1265.00
2023-06-28T01:31:29.125Z,1253.00
2023-06-28T01:32:29.080Z,1226.00
2023-06-28T01:33:29.245Z,1217.00
2023-06-28T01:34:29.060Z,1202.00
2023-06-28T01:35:29.132Z,1205.00
2023-06-28T01:36:29.209Z,1195.00
2023-06-28T01:37:29.265Z,1194.00
2023-06-28T01:38:29.277Z,1179.00
2023-06-28T01:39:29.288Z,1163.00
2023-06-28T01:40:29.298Z,1144.00
2023-06-28T01:41:29.330Z,1119.00
2023-06-28T01:42:29.327Z,1107.00
2023-06-28T01:43:29.344Z,1078.00
2023-06-28T01:44:29.390Z,1085.00
2023-06-28T01:45:29.488Z,1036.00
2023-06-28T01:46:29.611Z,1020.00
2023-06-28T01:47:29.659Z,1009.00
2023-06-28T01:48:29.728Z,1052.00
2023-06-28T01:49:29.704Z,1092.00
2023-06-28T01:50:29.768Z,1107.00
2023-06-28T01:51:29.740Z,1146.00
2023-06-28T01:52:29.771Z,1178.00
2023-06-28T01:53:29.776Z,1191.00
2023-06-28T01:54:29.841Z,1205.00
2023-06-28T01:55:29.909Z,1241.00
2023-06-28T01:56:29.977Z,1236.00
2023-06-28T01:57:30.031Z,1268.00
2023-06-28T01:58:30.100Z,1273.00
2023-06-28T01:59:30.120Z,1308.00
2023-06-28T02:00:30.226Z,1324.00
2023-06-28T02:01:30.353Z,1329.00
2023-06-28T02:02:30.385Z,1341.00
2023-06-28T02:03:30.452Z,1349.00
2023-06-28T02:04:30.440Z,1357.00
2023-06-28T02:05:30.531Z,1359.00
2023-06-28T02:06:30.540Z,1368.00
2023-06-28T02:07:30.690Z,1381.00
2023-06-28T02:08:30.585Z,1348.00
2023-06-28T02:09:30.615Z,1360.00
2023-06-28T02:10:30.660Z,1349.00
2023-06-28T02:11:30.742Z,1352.00
2023-06-28T02:12:30.765Z,1340.00
2023-06-28T02:13:30.837Z,1313.00
2023-06-28T02:14:30.880Z,1315.00
2023-06-28T02:15:31.009Z,1293.00
2023-06-28T02:16:31.086Z,1298.00
2023-06-28T02:17:31.137Z,1260.00
2023-06-28T02:18:31.161Z,1237.00
2023-06-28T02:19:31.212Z,1205.00
2023-06-28T02:20:31.235Z,1188.00
2023-06-28T02:21:31.249Z,1172.00
2023-06-28T02:22:31.240Z,1142.00
2023-06-28T02:23:31.258Z,1129.00
2023-06-28T02:24:31.312Z,1136.00
2023-06-28T02:25:31.365Z,1098.00
2023-06-28T02:26:31.408Z,1084.00
2023-06-28T02:27:31.460Z,1088.00
2023-06-28T02:28:32.069Z,1106.00
2023-06-28T02:29:31.498Z,1104.00
2023-06-28T02:30:31.540Z,1070.00
2023-06-28T02:31:31.652Z,1041.00
2023-06-28T02:32:31.629Z,1045.00
2023-06-28T02:33:31.661Z,1054.00
2023-06-28T02:34:31.635Z,1027.00
2023-06-28T02:35:31.661Z,1015.00
2023-06-28T02:36:31.695Z,1009.00
2023-06-28T02:37:31.696Z,1016.00
2023-06-28T02:38:31.723Z,1012.00
2023-06-28T02:39:31.785Z,1023.00
2023-06-28T02:40:31.809Z,1010.00
2023-06-28T02:41:31.850Z,1015.00
2023-06-28T02:42:31.887Z,1013.00
2023-06-28T02:43:31.917Z,1032.00
2023-06-28T02:44:31.931Z,1051.00
2023-06-28T02:45:31.971Z,1098.00
2023-06-28T02:46:32.005Z,1102.00
2023-06-28T02:47:32.081Z,1125.00
2023-06-28T02:48:32.078Z,1131.00
2023-06-28T02:49:32.124Z,1116.00
2023-06-28T02:50:32.171Z,1116.00
2023-06-28T02:51:32.186Z,1094.00
2023-06-28T02:52:32.211Z,1085.00
2023-06-28T02:53:32.285Z,1097.00
2023-06-28T02:54:32.263Z,1054.00
2023-06-28T02:55:32.300Z,1021.00
2023-06-28T02:56:32.338Z,1004.00
2023-06-28T02:57:32.355Z,973.00
2023-06-28T02:58:32.366Z,916.00
2023-06-28T02:59:32.434Z,867.00
2023-06-28T03:00:32.434Z,823.00
2023-06-28T03:01:32.541Z,803.00
2023-06-28T03:02:32.517Z,782.00
2023-06-28T03:03:32.573Z,753.00
2023-06-28T03:04:32.589Z,707.00
2023-06-28T03:05:32.598Z,695.00
2023-06-28T03:06:32.597Z,665.00
2023-06-28T03:07:32.689Z,650.00
2023-06-28T03:08:32.665Z,644.00
2023-06-28T03:09:32.733Z,650.00
2023-06-28T03:10:32.785Z,644.00
2023-06-28T03:11:32.791Z,656.00
2023-06-28T03:12:32.856Z,637.00
2023-06-28T03:13:32.890Z,630.00
2023-06-28T03:14:32.871Z,640.00
2023-06-28T03:15:32.965Z,635.00
2023-06-28T03:16:32.975Z,641.00
2023-06-28T03:17:33.095Z,645.00
2023-06-28T03:18:33.049Z,640.00
2023-06-28T03:19:33.075Z,637.00
2023-06-28T03:20:33.132Z,647.00
2023-06-28T03:21:33.141Z,655.00
2023-06-28T03:22:33.172Z,645.00
2023-06-28T03:23:33.190Z,657.00
2023-06-28T03:24:33.330Z,651.00
2023-06-28T03:25:33.295Z,650.00
2023-06-28T03:26:33.299Z,648.00
2023-06-28T03:27:33.316Z,650.00
2023-06-28T03:28:33.338Z,654.00
2023-06-28T03:29:33.325Z,667.00
2023-06-28T03:30:33.374Z,695.00
2023-06-28T03:31:33.452Z,724.00
2023-06-28T03:32:33.516Z,723.00
2023-06-28T03:33:33.504Z,728.00
2023-06-28T03:34:33.545Z,762.00
2023-06-28T03:35:33.570Z,764.00
2023-06-28T03:36:33.597Z,809.00
2023-06-28T03:37:33.649Z,808.00
2023-06-28T03:38:33.629Z,811.00
2023-06-28T03:39:33.607Z,829.00
2023-06-28T03:40:33.660Z,854.00
2023-06-28T03:41:33.679Z,851.00
2023-06-28T03:42:33.721Z,871.00
2023-06-28T03:43:33.776Z,901.00
2023-06-28T03:44:33.754Z,890.00
2023-06-28T03:45:33.783Z,922.00
2023-06-28T03:46:33.912Z,954.00
2023-06-28T03:47:33.889Z,967.00
2023-06-28T03:48:33.811Z,971.00
2023-06-28T03:49:33.758Z,999.00
2023-06-28T03:50:33.776Z,999.00
2023-06-28T03:51:33.805Z,1038.00
2023-06-28T03:52:33.815Z,1056.00
2023-06-28T03:53:34.139Z,1079.00
2023-06-28T03:54:33.840Z,1077.00
2023-06-28T03:55:33.816Z,1094.00
2023-06-28T03:56:33.868Z,1087.00
2023-06-28T03:57:33.844Z,1069.00
2023-06-28T03:58:33.874Z,1074.00
2023-06-28T03:59:33.931Z,1090.00
2023-06-28T04:00:33.973Z,1094.00
2023-06-28T04:01:33.985Z,1095.00
2023-06-28T04:02:34.030Z,1130.00
2023-06-28T04:03:34.113Z,1172.00
2023-06-28T04:04:34.029Z,1167.00
2023-06-28T04:05:34.011Z,1167.00
2023-06-28T04:06:34.057Z,1188.00
2023-06-28T04:07:34.117Z,1155.00
2023-06-28T04:08:34.110Z,1177.00
2023-06-28T04:09:34.133Z,1193.00
2023-06-28T04:10:34.145Z,1203.00
2023-06-28T04:11:34.154Z,1200.00
2023-06-28T04:12:34.133Z,1218.00
2023-06-28T04:13:34.153Z,1205.00
2023-06-28T04:14:36.522Z,1248.00
2023-06-28T04:15:34.320Z,1249.00
2023-06-28T04:16:34.328Z,1272.00
2023-06-28T04:17:34.376Z,1268.00
2023-06-28T04:18:34.314Z,1260.00
2023-06-28T04:19:34.303Z,1285.00
2023-06-28T04:20:34.318Z,1282.00
2023-06-28T04:21:34.301Z,1286.00
2023-06-28T04:22:34.299Z,1293.00
2023-06-28T04:23:34.327Z,1292.00
2023-06-28T04:24:34.326Z,1310.00
2023-06-28T04:25:34.342Z,1316.00
2023-06-28T04:26:34.335Z,1314.00
2023-06-28T04:27:34.335Z,1318.00
2023-06-28T04:28:34.346Z,1340.00
2023-06-28T04:29:34.387Z,1362.00
2023-06-28T04:30:34.345Z,1375.00
2023-06-28T04:31:34.340Z,1377.00
2023-06-28T04:32:34.445Z,1387.00
2023-06-28T04:33:34.390Z,1415.00
2023-06-28T04:34:34.411Z,1390.00
2023-06-28T04:35:34.445Z,1393.00
2023-06-28T04:36:34.504Z,1409.00
2023-06-28T04:37:34.549Z,1442.00
2023-06-28T04:38:34.546Z,1442.00
2023-06-28T04:39:34.556Z,1438.00
2023-06-28T04:40:34.564Z,1443.00
2023-06-28T04:41:34.597Z,1466.00
2023-06-28T04:42:34.627Z,1465.00
2023-06-28T04:43:34.614Z,1479.00
2023-06-28T04:44:34.621Z,1489.00
2023-06-28T04:45:34.648Z,1481.00
2023-06-28T04:46:34.604Z,1478.00
2023-06-28T04:47:34.643Z,1498.00
2023-06-28T04:48:34.644Z,1507.00
2023-06-28T04:49:34.603Z,1516.00
2023-06-28T04:50:34.636Z,1544.00
2023-06-28T04:51:34.632Z,1519.00
2023-06-28T04:52:34.632Z,1512.00
2023-06-28T04:53:34.644Z,1508.00
2023-06-28T04:54:34.675Z,1517.00
2023-06-28T04:55:34.687Z,1505.00
2023-06-28T04:56:34.644Z,1523.00
2023-06-28T04:57:34.650Z,1539.00
2023-06-28T04:58:34.685Z,1583.00
2023-06-28T04:59:34.716Z,1597.00
2023-06-28T05:00:34.758Z,1595.00
2023-06-28T05:01:34.788Z,1640.00
2023-06-28T05:02:34.956Z,1689.00
2023-06-28T05:03:34.896Z,1701.00
2023-06-28T05:04:34.856Z,1665.00
2023-06-28T05:05:34.913Z,1672.00
2023-06-28T05:06:34.966Z,1681.00
2023-06-28T05:07:35.164Z,1681.00
2023-06-28T05:08:35.021Z,1690.00
2023-06-28T05:09:35.085Z,1690.00
2023-06-28T05:10:35.095Z,1719.00
2023-06-28T05:11:35.057Z,1723.00
2023-06-28T05:12:35.084Z,1739.00
2023-06-28T05:13:35.105Z,1739.00
2023-06-28T05:14:35.078Z,1762.00
2023-06-28T05:15:35.086Z,1759.00
2023-06-28T05:16:35.096Z,1767.00
2023-06-28T05:17:35.149Z,1755.00
2023-06-28T05:18:35.140Z,1760.00
2023-06-28T05:19:35.163Z,1768.00
2023-06-28T05:20:35.180Z,1788.00
2023-06-28T05:21:35.160Z,1828.00
2023-06-28T05:22:35.185Z,1851.00
2023-06-28T05:23:35.203Z,1875.00
2023-06-28T05:24:35.247Z,1892.00
2023-06-28T05:25:35.293Z,1927.00
2023-06-28T05:26:35.282Z,1941.00
2023-06-28T05:27:35.367Z,1935.00
2023-06-28T05:28:35.350Z,1925.00
2023-06-28T05:29:35.338Z,1946.00
2023-06-28T05:30:35.422Z,1928.00
2023-06-28T05:31:35.438Z,1951.00
2023-06-28T05:32:35.379Z,1960.00
2023-06-28T05:33:35.329Z,1974.00
2023-06-28T05:34:35.346Z,2002.00
2023-06-28T05:35:35.314Z,2028.00
2023-06-28T05:36:35.625Z,2083.00
2023-06-28T05:37:35.345Z,2155.00
2023-06-28T05:38:35.339Z,2250.00
2023-06-28T05:39:35.334Z,2295.00
2023-06-28T05:40:35.358Z,2337.00
2023-06-28T05:41:35.621Z,2373.00
2023-06-28T05:42:35.322Z,2376.00
2023-06-28T05:43:35.374Z,2405.00
2023-06-28T05:44:35.423Z,2417.00
2023-06-28T05:45:36.461Z,2412.00
2023-06-28T05:46:35.519Z,2410.00
2023-06-28T05:47:35.557Z,2395.00
2023-06-28T05:48:35.668Z,2394.00
2023-06-28T05:49:35.611Z,2392.00
2023-06-28T05:50:36.298Z,2380.00
2023-06-28T05:51:36.197Z,2355.00
2023-06-28T05:52:35.809Z,2347.00
2023-06-28T05:53:35.810Z,2324.00
2023-06-28T05:54:35.804Z,2324.00
2023-06-28T05:55:35.841Z,2302.00
2023-06-28T05:56:35.969Z,2295.00
2023-06-28T05:57:35.928Z,2313.00
2023-06-28T05:58:35.993Z,2308.00
2023-06-28T05:59:36.007Z,2310.00
2023-06-28T06:00:36.038Z,2315.00
2023-06-28T06:01:36.064Z,2318.00
2023-06-28T06:02:36.131Z,2314.00
2023-06-28T06:03:36.216Z,2311.00
2023-06-28T06:04:36.129Z,2303.00
2023-06-28T06:05:36.079Z,2262.00
2023-06-28T06:06:36.662Z,2254.00
2023-06-28T06:07:36.168Z,2222.00
2023-06-28T06:08:36.103Z,2188.00
2023-06-28T06:09:36.170Z,2193.00
2023-06-28T06:10:36.179Z,2165.00
2023-06-28T06:11:36.129Z,2156.00
2023-06-28T06:12:36.202Z,2150.00
2023-06-28T06:13:36.177Z,2132.00
2023-06-28T06:14:36.190Z,2137.00
2023-06-28T06:15:36.211Z,2123.00
2023-06-28T06:16:36.184Z,2136.00
2023-06-28T06:17:36.223Z,2132.00
2023-06-28T06:18:36.183Z,2103.00
2023-06-28T06:19:36.212Z,2112.00
2023-06-28T06:20:36.191Z,2105.00
2023-06-28T06:21:36.165Z,2104.00
2023-06-28T06:22:36.232Z,2100.00
2023-06-28T06:23:36.205Z,2091.00
2023-06-28T06:24:36.251Z,2070.00
2023-06-28T06:25:36.301Z,2072.00
2023-06-28T06:26:37.184Z,2047.00
2023-06-28T06:27:38.184Z,2045.00
2023-06-28T06:28:36.373Z,2043.00
2023-06-28T06:29:36.466Z,2035.00
2023-06-28T06:30:36.622Z,2020.00
2023-06-28T06:31:36.570Z,2043.00
2023-06-28T06:32:36.579Z,2030.00
2023-06-28T06:33:36.600Z,2042.00
2023-06-28T06:34:36.563Z,2035.00
2023-06-28T06:35:36.592Z,2023.00
2023-06-28T06:36:36.716Z,2017.00
2023-06-28T06:37:36.626Z,2024.00
2023-06-28T06:38:36.750Z,2021.00
2023-06-28T06:39:36.661Z,2025.00
2023-06-28T06:40:37.344Z,1998.00
2023-06-28T06:41:36.669Z,2005.00
2023-06-28T06:42:36.704Z,1998.00
2023-06-28T06:43:36.922Z,1993.00
2023-06-28T06:44:36.823Z,1970.00
2023-06-28T06:45:36.725Z,1965.00
2023-06-28T06:46:36.704Z,1967.00
2023-06-28T06:47:36.763Z,1946.00
2023-06-28T06:48:36.750Z,1943.00
2023-06-28T06:49:36.743Z,1927.00
2023-06-28T06:50:36.763Z,1900.00
2023-06-28T06:51:37.703Z,1899.00
2023-06-28T06:52:37.011Z,1872.00
2023-06-28T06:53:37.726Z,1860.00
2023-06-28T06:54:36.942Z,1854.00
2023-06-28T06:55:36.922Z,1855.00
2023-06-28T06:56:36.970Z,1848.00
2023-06-28T06:57:36.987Z,1833.00
2023-06-28T06:58:36.987Z,1806.00
2023-06-28T06:59:37.007Z,1804.00
2023-06-28T07:00:37.078Z,1802.00
2023-06-28T07:01:37.089Z,1803.00
2023-06-28T07:02:37.146Z,1798.00
2023-06-28T07:03:37.161Z,1779.00
2023-06-28T07:04:37.205Z,1786.00
2023-06-28T07:05:37.195Z,1782.00
2023-06-28T07:06:37.213Z,1764.00
2023-06-28T07:07:37.418Z,1763.00
2023-06-28T07:08:37.280Z,1760.00
2023-06-28T07:09:37.733Z,1757.00
2023-06-28T07:10:37.322Z,1775.00
2023-06-28T07:11:37.324Z,1791.00
2023-06-28T07:12:37.368Z,1772.00
2023-06-28T07:13:37.371Z,1765.00
2023-06-28T07:14:37.432Z,1734.00
2023-06-28T07:15:37.458Z,1735.00
2023-06-28T07:16:37.526Z,1729.00
2023-06-28T07:17:37.645Z,1736.00
2023-06-28T07:18:37.634Z,1725.00
2023-06-28T07:19:37.674Z,1729.00
2023-06-28T07:20:37.732Z,1737.00
2023-06-28T07:21:37.742Z,1716.00
2023-06-28T07:22:37.878Z,1693.00
2023-06-28T07:23:37.870Z,1710.00
2023-06-28T07:24:38.185Z,1705.00
2023-06-28T07:25:38.795Z,1695.00
2023-06-28T07:26:38.025Z,1697.00
2023-06-28T07:27:38.116Z,1691.00
2023-06-28T07:28:38.122Z,1683.00
2023-06-28T07:29:38.197Z,1691.00
2023-06-28T07:30:38.247Z,1714.00
2023-06-28T07:31:38.352Z,1687.00
2023-06-28T07:32:38.364Z,1674.00
2023-06-28T07:33:38.408Z,1662.00
2023-06-28T07:34:38.502Z,1669.00
2023-06-28T07:35:38.554Z,1654.00
2023-06-28T07:36:38.749Z,1660.00
2023-06-28T07:37:38.615Z,1663.00
2023-06-28T07:38:38.646Z,1664.00
2023-06-28T07:39:38.883Z,1661.00
2023-06-28T07:40:38.775Z,1651.00
2023-06-28T07:41:39.193Z,1657.00
2023-06-28T07:42:38.887Z,1656.00
2023-06-28T07:43:38.862Z,1648.00
2023-06-28T07:44:39.115Z,1651.00
2023-06-28T07:45:38.947Z,1648.00
2023-06-28T07:46:38.940Z,1650.00
2023-06-28T07:47:40.826Z,1644.00
2023-06-28T07:48:38.978Z,1637.00
2023-06-28T07:49:38.967Z,1626.00
2023-06-28T07:50:38.929Z,1631.00
2023-06-28T07:51:39.309Z,1628.00
2023-06-28T07:52:38.940Z,1639.00
2023-06-28T07:53:38.924Z,1632.00
2023-06-28T07:54:38.913Z,1643.00
2023-06-28T07:55:39.404Z,1642.00
2023-06-28T07:56:39.198Z,1637.00
2023-06-28T07:57:38.874Z,1596.00
2023-06-28T07:58:38.872Z,1590.00
2023-06-28T07:59:38.900Z,1557.00
2023-06-28T08:00:39.009Z,1565.00
2023-06-28T08:01:38.987Z,1542.00
2023-06-28T08:02:38.897Z,1533.00
2023-06-28T08:03:38.887Z,1531.00
2023-06-28T08:04:40.129Z,1534.00
2023-06-28T08:05:38.849Z,1559.00
2023-06-28T08:06:38.855Z,1566.00
2023-06-28T08:07:38.885Z,1556.00
2023-06-28T08:08:38.830Z,1597.00
2023-06-28T08:09:38.802Z,1608.00
2023-06-28T08:10:38.834Z,1597.00
2023-06-28T08:11:38.805Z,1605.00
2023-06-28T08:12:38.791Z,1604.00
2023-06-28T08:13:38.800Z,1603.00
2023-06-28T08:14:38.799Z,1622.00
2023-06-28T08:15:40.519Z,1609.00
2023-06-28T08:16:38.759Z,1628.00
2023-06-28T08:17:38.758Z,1628.00
2023-06-28T08:18:38.768Z,1639.00
2023-06-28T08:19:38.739Z,1662.00
2023-06-28T08:20:42.981Z,1647.00
2023-06-28T08:21:38.735Z,1647.00
2023-06-28T08:22:38.724Z,1647.00
2023-06-28T08:23:38.710Z,1608.00
2023-06-28T08:24:38.794Z,1635.00
2023-06-28T08:25:38.763Z,1627.00
2023-06-28T08:26:39.787Z,1644.00
2023-06-28T08:27:38.685Z,1645.00
2023-06-28T08:28:50.418Z,1650.00
2023-06-28T08:29:39.655Z,1639.00
2023-06-28T08:30:39.134Z,1590.00
2023-06-28T08:31:38.796Z,1584.00
2023-06-28T08:32:38.703Z,1558.00
2023-06-28T08:33:39.115Z,1538.00
2023-06-28T08:34:38.715Z,1511.00
2023-06-28T08:35:38.632Z,1499.00
2023-06-28T08:36:38.795Z,1503.00
2023-06-28T08:37:38.674Z,1462.00
2023-06-28T08:38:39.191Z,1438.00
2023-06-28T08:39:38.770Z,1446.00
2023-06-28T08:40:38.838Z,1450.00
2023-06-28T08:41:39.197Z,1450.00
2023-06-28T08:42:38.859Z,1430.00
2023-06-28T08:43:38.891Z,1436.00
2023-06-28T08:44:38.909Z,1417.00
2023-06-28T08:45:38.953Z,1414.00
2023-06-28T08:46:38.990Z,1394.00
2023-06-28T08:47:39.099Z,1394.00
2023-06-28T08:48:39.107Z,1401.00
2023-06-28T08:49:39.052Z,1418.00
2023-06-28T08:50:39.079Z,1428.00
2023-06-28T08:51:39.821Z,1446.00
2023-06-28T08:52:39.117Z,1419.00
2023-06-28T08:53:39.132Z,1385.00
2023-06-28T08:54:39.159Z,1366.00
2023-06-28T08:55:40.514Z,1361.00
2023-06-28T08:56:48.121Z,1338.00
2023-06-28T08:57:40.204Z,1338.00
2023-06-28T08:58:39.250Z,1313.00
2023-06-28T08:59:39.222Z,1319.00
2023-06-28T09:00:39.533Z,1298.00
2023-06-28T09:01:39.171Z,1302.00
2023-06-28T09:02:39.856Z,1295.00
2023-06-28T09:03:39.248Z,1296.00
2023-06-28T09:04:39.209Z,1287.00
2023-06-28T09:05:39.376Z,1255.00
2023-06-28T09:06:39.911Z,1238.00
2023-06-28T09:07:40.266Z,1255.00
2023-06-28T09:08:39.325Z,1267.00
2023-06-28T09:09:39.365Z,1247.00
2023-06-28T09:10:40.240Z,1221.00
2023-06-28T09:11:39.460Z,1217.00
2023-06-28T09:12:39.482Z,1200.00
2023-06-28T09:13:39.478Z,1190.00
2023-06-28T09:14:39.506Z,1161.00
2023-06-28T09:15:39.750Z,1143.00
2023-06-28T09:16:39.537Z,1120.00
2023-06-28T09:17:39.631Z,1088.00
2023-06-28T09:18:39.643Z,1080.00
2023-06-28T09:19:39.782Z,1052.00
2023-06-28T09:20:39.757Z,1042.00
2023-06-28T09:21:39.796Z,1026.00
2023-06-28T09:22:40.172Z,1021.00
2023-06-28T09:23:39.856Z,1003.00
2023-06-28T09:24:39.938Z,993.00
2023-06-28T09:25:40.094Z,1043.00
2023-06-28T09:26:40.265Z,990.00
2023-06-28T09:27:40.131Z,996.00
2023-06-28T09:28:42.392Z,1078.00
2023-06-28T09:29:40.291Z,1175.00
2023-06-28T09:30:40.377Z,1242.00
2023-06-28T09:31:41.271Z,1259.00
2023-06-28T09:32:40.555Z,1339.00
2023-06-28T09:33:40.566Z,1399.00
2023-06-28T09:34:40.627Z,1474.00
2023-06-28T09:35:41.094Z,1547.00
2023-06-28T09:36:40.804Z,1586.00
2023-06-28T09:37:40.810Z,1570.00
2023-06-28T09:38:40.879Z,1558.00
2023-06-28T09:39:40.862Z,1533.00
2023-06-28T09:40:40.900Z,1511.00
2023-06-28T09:41:41.311Z,1522.00
2023-06-28T09:42:41.001Z,1496.00
2023-06-28T09:43:41.054Z,1459.00
2023-06-28T09:44:41.082Z,1428.00
2023-06-28T09:45:41.444Z,1371.00
2023-06-28T09:46:41.259Z,1327.00
2023-06-28T09:47:41.336Z,1257.00
2023-06-28T09:48:42.237Z,1206.00
2023-06-28T09:49:41.269Z,1166.00
2023-06-28T09:50:41.529Z,1126.00
2023-06-28T09:51:41.447Z,1100.00
2023-06-28T09:52:41.445Z,1037.00
2023-06-28T09:53:41.481Z,1006.00
2023-06-28T09:54:41.893Z,946.00
2023-06-28T09:55:41.895Z,918.00
2023-06-28T09:56:41.875Z,888.00
2023-06-28T09:57:41.718Z,847.00
2023-06-28T09:58:41.728Z,837.00
2023-06-28T09:59:41.821Z,791.00
2023-06-28T10:00:41.854Z,771.00
2023-06-28T10:01:41.892Z,710.00
2023-06-28T10:02:42.202Z,720.00
2023-06-28T10:03:42.144Z,663.00
2023-06-28T10:04:42.140Z,655.00
2023-06-28T10:05:42.295Z,656.00
2023-06-28T10:06:42.263Z,658.00
2023-06-28T10:07:42.218Z,670.00
2023-06-28T10:08:42.285Z,685.00
2023-06-28T10:09:42.366Z,707.00
2023-06-28T10:10:42.389Z,678.00
2023-06-28T10:11:42.402Z,664.00
2023-06-28T10:12:42.454Z,659.00
2023-06-28T10:13:42.560Z,662.00
2023-06-28T10:14:42.658Z,661.00
2023-06-28T10:15:42.886Z,654.00
2023-06-28T10:16:42.834Z,657.00
2023-06-28T10:17:43.280Z,649.00
2023-06-28T10:18:42.672Z,640.00
2023-06-28T10:19:42.773Z,646.00
2023-06-28T10:20:43.302Z,635.00
2023-06-28T10:21:42.944Z,629.00
2023-06-28T10:22:42.751Z,628.00
2023-06-28T10:23:42.747Z,611.00
2023-06-28T10:24:42.789Z,600.00
2023-06-28T10:25:46.053Z,600.00
2023-06-28T10:26:43.770Z,598.00
2023-06-28T10:27:42.799Z,596.00
2023-06-28T10:28:42.813Z,585.00
2023-06-28T10:29:42.783Z,573.00
2023-06-28T10:30:42.872Z,556.00
2023-06-28T10:31:43.441Z,548.00
2023-06-28T10:32:42.836Z,534.00
2023-06-28T10:33:42.804Z,525.00
2023-06-28T10:34:42.772Z,519.00
2023-06-28T10:35:42.902Z,516.00
2023-06-28T10:36:42.808Z,509.00
2023-06-28T10:37:43.282Z,500.00
2023-06-28T10:38:42.728Z,507.00
2023-06-28T10:39:42.744Z,507.00
2023-06-28T10:40:42.674Z,504.00
2023-06-28T10:41:42.738Z,507.00
2023-06-28T10:42:42.690Z,513.00
2023-06-28T10:43:43.258Z,504.00
2023-06-28T10:44:42.672Z,506.00
2023-06-28T10:45:42.828Z,507.00
2023-06-28T10:46:42.670Z,500.00
2023-06-28T10:47:43.351Z,505.00
2023-06-28T10:48:42.721Z,510.00
2023-06-28T10:49:42.638Z,500.00
2023-06-28T10:50:42.700Z,505.00
2023-06-28T10:51:42.604Z,500.00
2023-06-28T10:52:42.674Z,516.00
2023-06-28T10:53:42.649Z,507.00
2023-06-28T10:54:42.694Z,508.00
2023-06-28T10:55:42.739Z,514.00
2023-06-28T10:56:42.679Z,510.00
2023-06-28T10:57:42.577Z,502.00
2023-06-28T10:58:42.588Z,506.00
2023-06-28T10:59:42.584Z,506.00
2023-06-28T11:00:42.630Z,500.00
2023-06-28T11:01:42.655Z,505.00
2023-06-28T11:02:42.802Z,511.00
2023-06-28T11:03:42.656Z,511.00
2023-06-28T11:04:42.729Z,510.00
2023-06-28T11:05:42.690Z,510.00
2023-06-28T11:06:42.586Z,494.00
2023-06-28T11:07:42.782Z,497.00
2023-06-28T11:08:42.655Z,498.00
2023-06-28T11:09:42.612Z,500.00
2023-06-28T11:10:42.637Z,501.00
2023-06-28T11:11:42.660Z,501.00
2023-06-28T11:12:42.552Z,504.00
2023-06-28T11:13:42.579Z,500.00
2023-06-28T11:14:42.545Z,510.00
2023-06-28T11:15:42.859Z,520.00
2023-06-28T11:16:43.455Z,515.00
2023-06-28T11:17:42.812Z,519.00
2023-06-28T11:18:43.298Z,518.00
2023-06-28T11:19:42.719Z,525.00
2023-06-28T11:20:42.741Z,515.00
2023-06-28T11:21:43.299Z,515.00
2023-06-28T11:22:42.776Z,525.00
2023-06-28T11:23:42.729Z,516.00
2023-06-28T11:24:42.682Z,507.00
2023-06-28T11:25:42.900Z,518.00
2023-06-28T11:26:42.730Z,513.00
2023-06-28T11:27:42.697Z,519.00
2023-06-28T11:28:42.726Z,525.00
2023-06-28T11:29:42.736Z,524.00
2023-06-28T11:30:42.894Z,534.00
2023-06-28T11:31:42.711Z,527.00
2023-06-28T11:32:42.689Z,533.00
2023-06-28T11:33:42.659Z,522.00
2023-06-28T11:34:42.672Z,519.00
2023-06-28T11:35:42.985Z,512.00
2023-06-28T11:36:42.752Z,513.00
2023-06-28T11:37:42.823Z,519.00
2023-06-28T11:38:42.883Z,515.00
2023-06-28T11:39:42.857Z,525.00
2023-06-28T11:40:42.854Z,525.00
2023-06-28T11:41:42.883Z,518.00
2023-06-28T11:42:42.853Z,514.00
2023-06-28T11:43:42.860Z,501.00
2023-06-28T11:44:42.852Z,498.00
2023-06-28T11:45:43.098Z,508.00
2023-06-28T11:46:42.910Z,507.00
2023-06-28T11:47:42.948Z,501.00
2023-06-28T11:48:42.975Z,500.00
2023-06-28T11:49:43.043Z,503.00
2023-06-28T11:50:43.089Z,501.00
2023-06-28T11:51:43.138Z,504.00
2023-06-28T11:52:43.194Z,510.00
2023-06-28T11:53:43.265Z,515.00
2023-06-28T11:54:43.292Z,518.00
2023-06-28T11:55:43.612Z,509.00
2023-06-28T11:56:43.369Z,519.00
2023-06-28T11:57:43.359Z,510.00
2023-06-28T11:58:43.367Z,518.00
2023-06-28T11:59:43.435Z,510.00
2023-06-28T12:00:43.541Z,519.00
2023-06-28T12:01:43.544Z,520.00
2023-06-28T12:02:43.650Z,524.00
2023-06-28T12:03:43.761Z,501.00
2023-06-28T12:04:43.867Z,517.00
2023-06-28T12:05:44.107Z,511.00
2023-06-28T12:06:44.785Z,524.00
2023-06-28T12:07:44.041Z,517.00
2023-06-28T12:08:43.948Z,516.00
2023-06-28T12:09:44.010Z,521.00
2023-06-28T12:10:44.076Z,514.00
2023-06-28T12:11:44.356Z,524.00
2023-06-28T12:12:44.069Z,532.00